Solon, Iowa
Current Conditions -  °F | °C
As of 10:52 AM on Friday 19 Dec 2014 (Local Time) from KCID Reporting Station
Haze Haze  
Wind Chill: 22°   Ceiling: 4700
Heat Index: 27°   Visibility: 6mi
Dew Point: 21°   Wind: 5mph
Humidity: 78%   Direction: 170°S
Pressure: 30.29"   Gusts: NA
Location:  41.81°N, 91.49°W
Report Text: KCID 191652Z 17004KT 6SM HZ OVC047 M03/M06 A3029 RMK AO2 SLP270 T10281061 $
Loading
Personal Weather Stations






























Interactive Weather Map New forecast layout! Learn more

10-Day Weather Forecast

Advertisements
Track Severe Weather on mobile